sensor_id;sensor_type;location;lat;lon;timestamp;P1;durP1;ratioP1;P2;durP2;ratioP2
74102;SDS011;62853;46.166;3.640;2023-02-28T00:01:28;4.07;;;2.30;;
74102;SDS011;62853;46.166;3.640;2023-02-28T00:04:04;3.65;;;2.30;;
74102;SDS011;62853;46.166;3.640;2023-02-28T00:06:34;3.60;;;2.50;;
74102;SDS011;62853;46.166;3.640;2023-02-28T00:09:12;3.20;;;2.50;;
74102;SDS011;62853;46.166;3.640;2023-02-28T00:11:37;2.95;;;2.25;;
74102;SDS011;62853;46.166;3.640;2023-02-28T00:14:06;3.78;;;2.33;;
74102;SDS011;62853;46.166;3.640;2023-02-28T00:16:34;4.32;;;2.40;;
74102;SDS011;62853;46.166;3.640;2023-02-28T00:19:04;2.90;;;2.28;;
74102;SDS011;62853;46.166;3.640;2023-02-28T00:21:33;3.08;;;2.33;;
74102;SDS011;62853;46.166;3.640;2023-02-28T00:23:58;3.78;;;2.40;;
74102;SDS011;62853;46.166;3.640;2023-02-28T00:26:29;4.07;;;2.47;;
74102;SDS011;62853;46.166;3.640;2023-02-28T00:28:57;3.22;;;2.40;;
74102;SDS011;62853;46.166;3.640;2023-02-28T00:31:25;2.70;;;2.33;;
74102;SDS011;62853;46.166;3.640;2023-02-28T00:33:53;4.22;;;2.95;;
74102;SDS011;62853;46.166;3.640;2023-02-28T00:36:24;3.97;;;2.70;;
74102;SDS011;62853;46.166;3.640;2023-02-28T00:38:50;3.42;;;2.65;;
74102;SDS011;62853;46.166;3.640;2023-02-28T00:41:20;3.90;;;2.92;;
74102;SDS011;62853;46.166;3.640;2023-02-28T00:43:51;3.83;;;3.10;;
74102;SDS011;62853;46.166;3.640;2023-02-28T00:46:17;5.03;;;3.22;;
74102;SDS011;62853;46.166;3.640;2023-02-28T00:48:47;4.55;;;3.05;;
74102;SDS011;62853;46.166;3.640;2023-02-28T00:51:12;5.10;;;3.17;;
74102;SDS011;62853;46.166;3.640;2023-02-28T00:53:40;5.38;;;3.35;;
74102;SDS011;62853;46.166;3.640;2023-02-28T00:56:10;5.47;;;3.20;;
74102;SDS011;62853;46.166;3.640;2023-02-28T00:58:38;4.07;;;3.10;;
74102;SDS011;62853;46.166;3.640;2023-02-28T01:01:05;4.57;;;3.00;;
74102;SDS011;62853;46.166;3.640;2023-02-28T01:03:33;5.78;;;3.40;;
74102;SDS011;62853;46.166;3.640;2023-02-28T01:06:03;4.85;;;2.83;;
74102;SDS011;62853;46.166;3.640;2023-02-28T01:08:32;4.22;;;2.83;;
74102;SDS011;62853;46.166;3.640;2023-02-28T01:13:59;3.95;;;2.72;;
74102;SDS011;62853;46.166;3.640;2023-02-28T01:16:31;4.50;;;2.90;;
74102;SDS011;62853;46.166;3.640;2023-02-28T01:18:59;3.47;;;2.88;;
74102;SDS011;62853;46.166;3.640;2023-02-28T01:21:29;4.30;;;3.28;;
74102;SDS011;62853;46.166;3.640;2023-02-28T01:23:56;3.35;;;2.50;;
74102;SDS011;62853;46.166;3.640;2023-02-28T01:26:22;4.28;;;2.97;;
74102;SDS011;62853;46.166;3.640;2023-02-28T01:28:53;4.65;;;3.33;;
74102;SDS011;62853;46.166;3.640;2023-02-28T01:31:39;4.50;;;3.35;;
74102;SDS011;62853;46.166;3.640;2023-02-28T01:34:07;3.90;;;2.90;;
74102;SDS011;62853;46.166;3.640;2023-02-28T01:36:42;4.10;;;3.00;;
74102;SDS011;62853;46.166;3.640;2023-02-28T01:39:10;4.40;;;2.80;;
74102;SDS011;62853;46.166;3.640;2023-02-28T01:41:47;5.20;;;2.90;;
74102;SDS011;62853;46.166;3.640;2023-02-28T01:47:27;3.08;;;2.20;;
74102;SDS011;62853;46.166;3.640;2023-02-28T01:49:59;4.53;;;2.80;;
74102;SDS011;62853;46.166;3.640;2023-02-28T01:52:27;3.28;;;2.00;;
74102;SDS011;62853;46.166;3.640;2023-02-28T01:54:54;4.47;;;2.70;;
74102;SDS011;62853;46.166;3.640;2023-02-28T01:57:26;4.00;;;3.03;;
74102;SDS011;62853;46.166;3.640;2023-02-28T02:00:04;4.75;;;2.75;;
74102;SDS011;62853;46.166;3.640;2023-02-28T02:02:33;4.25;;;2.88;;
74102;SDS011;62853;46.166;3.640;2023-02-28T02:05:19;3.58;;;2.70;;
74102;SDS011;62853;46.166;3.640;2023-02-28T02:07:48;3.70;;;2.42;;
74102;SDS011;62853;46.166;3.640;2023-02-28T02:10:24;3.63;;;2.50;;
74102;SDS011;62853;46.166;3.640;2023-02-28T02:13:34;4.77;;;2.93;;
74102;SDS011;62853;46.166;3.640;2023-02-28T02:18:54;3.55;;;2.53;;
74102;SDS011;62853;46.166;3.640;2023-02-28T02:24:11;4.50;;;2.63;;
74102;SDS011;62853;46.166;3.640;2023-02-28T02:29:46;3.92;;;2.60;;
74102;SDS011;62853;46.166;3.640;2023-02-28T02:32:49;4.18;;;2.78;;
74102;SDS011;62853;46.166;3.640;2023-02-28T02:35:42;4.80;;;3.40;;
74102;SDS011;62853;46.166;3.640;2023-02-28T02:41:17;5.38;;;3.15;;
74102;SDS011;62853;46.166;3.640;2023-02-28T02:44:22;4.88;;;2.90;;
74102;SDS011;62853;46.166;3.640;2023-02-28T02:47:06;4.72;;;3.05;;
74102;SDS011;62853;46.166;3.640;2023-02-28T02:49:38;4.80;;;3.20;;
74102;SDS011;62853;46.166;3.640;2023-02-28T02:52:10;4.78;;;2.58;;
74102;SDS011;62853;46.166;3.640;2023-02-28T02:55:02;5.35;;;3.30;;
74102;SDS011;62853;46.166;3.640;2023-02-28T02:57:34;4.65;;;2.95;;
74102;SDS011;62853;46.166;3.640;2023-02-28T03:00:10;5.97;;;3.42;;
74102;SDS011;62853;46.166;3.640;2023-02-28T03:02:48;4.88;;;3.30;;
74102;SDS011;62853;46.166;3.640;2023-02-28T03:05:26;4.22;;;3.15;;
74102;SDS011;62853;46.166;3.640;2023-02-28T03:07:58;5.28;;;3.20;;
74102;SDS011;62853;46.166;3.640;2023-02-28T03:10:31;4.57;;;3.05;;
74102;SDS011;62853;46.166;3.640;2023-02-28T03:21:32;5.70;;;3.00;;
74102;SDS011;62853;46.166;3.640;2023-02-28T03:26:26;4.53;;;2.33;;
74102;SDS011;62853;46.166;3.640;2023-02-28T03:29:39;3.80;;;2.25;;
74102;SDS011;62853;46.166;3.640;2023-02-28T03:31:52;4.03;;;2.50;;
74102;SDS011;62853;46.166;3.640;2023-02-28T03:34:28;3.10;;;2.22;;
74102;SDS011;62853;46.166;3.640;2023-02-28T03:37:00;5.85;;;2.88;;
74102;SDS011;62853;46.166;3.640;2023-02-28T03:39:40;4.85;;;3.22;;
74102;SDS011;62853;46.166;3.640;2023-02-28T03:42:11;6.25;;;3.22;;
74102;SDS011;62853;46.166;3.640;2023-02-28T03:44:51;4.82;;;3.10;;
74102;SDS011;62853;46.166;3.640;2023-02-28T03:49:56;4.83;;;3.03;;
74102;SDS011;62853;46.166;3.640;2023-02-28T03:52:28;3.63;;;2.60;;
74102;SDS011;62853;46.166;3.640;2023-02-28T03:55:15;3.75;;;2.70;;
74102;SDS011;62853;46.166;3.640;2023-02-28T03:57:56;3.67;;;2.90;;
74102;SDS011;62853;46.166;3.640;2023-02-28T04:00:37;4.28;;;2.65;;
74102;SDS011;62853;46.166;3.640;2023-02-28T04:03:07;5.30;;;2.78;;
74102;SDS011;62853;46.166;3.640;2023-02-28T04:05:44;3.25;;;2.38;;
74102;SDS011;62853;46.166;3.640;2023-02-28T04:08:16;2.60;;;2.13;;
74102;SDS011;62853;46.166;3.640;2023-02-28T04:10:46;3.65;;;2.22;;
74102;SDS011;62853;46.166;3.640;2023-02-28T04:13:17;4.57;;;2.50;;
74102;SDS011;62853;46.166;3.640;2023-02-28T04:15:48;3.10;;;2.53;;
74102;SDS011;62853;46.166;3.640;2023-02-28T04:18:24;3.72;;;2.20;;
74102;SDS011;62853;46.166;3.640;2023-02-28T04:20:54;3.05;;;2.28;;
74102;SDS011;62853;46.166;3.640;2023-02-28T04:23:22;4.15;;;2.78;;
74102;SDS011;62853;46.166;3.640;2023-02-28T04:25:47;3.72;;;2.63;;
74102;SDS011;62853;46.166;3.640;2023-02-28T04:28:25;5.50;;;2.65;;
74102;SDS011;62853;46.166;3.640;2023-02-28T04:30:58;3.35;;;2.33;;
74102;SDS011;62853;46.166;3.640;2023-02-28T04:33:25;3.17;;;2.20;;
74102;SDS011;62853;46.166;3.640;2023-02-28T04:36:04;3.70;;;2.45;;
74102;SDS011;62853;46.166;3.640;2023-02-28T04:38:34;2.63;;;2.10;;
74102;SDS011;62853;46.166;3.640;2023-02-28T04:41:02;3.38;;;2.20;;
74102;SDS011;62853;46.166;3.640;2023-02-28T04:43:30;3.75;;;2.13;;
74102;SDS011;62853;46.166;3.640;2023-02-28T04:46:00;4.68;;;2.45;;
74102;SDS011;62853;46.166;3.640;2023-02-28T04:48:32;3.55;;;2.35;;
74102;SDS011;62853;46.166;3.640;2023-02-28T04:51:18;3.30;;;2.22;;
74102;SDS011;62853;46.166;3.640;2023-02-28T04:53:47;4.05;;;2.60;;
74102;SDS011;62853;46.166;3.640;2023-02-28T04:56:16;3.60;;;2.60;;
74102;SDS011;62853;46.166;3.640;2023-02-28T04:58:50;3.05;;;1.90;;
74102;SDS011;62853;46.166;3.640;2023-02-28T05:04:03;2.58;;;2.00;;
74102;SDS011;62853;46.166;3.640;2023-02-28T05:06:30;2.90;;;1.95;;
74102;SDS011;62853;46.166;3.640;2023-02-28T05:09:01;2.92;;;2.13;;
74102;SDS011;62853;46.166;3.640;2023-02-28T05:11:32;3.78;;;1.85;;
74102;SDS011;62853;46.166;3.640;2023-02-28T05:14:11;3.17;;;2.13;;
74102;SDS011;62853;46.166;3.640;2023-02-28T05:16:38;2.72;;;2.15;;
74102;SDS011;62853;46.166;3.640;2023-02-28T05:19:11;2.78;;;2.08;;
74102;SDS011;62853;46.166;3.640;2023-02-28T05:21:49;2.75;;;1.95;;
74102;SDS011;62853;46.166;3.640;2023-02-28T05:26:49;3.67;;;2.28;;
74102;SDS011;62853;46.166;3.640;2023-02-28T05:29:16;3.75;;;2.25;;
74102;SDS011;62853;46.166;3.640;2023-02-28T05:31:44;3.53;;;2.17;;
74102;SDS011;62853;46.166;3.640;2023-02-28T05:34:27;4.03;;;2.60;;
74102;SDS011;62853;46.166;3.640;2023-02-28T05:37:00;3.00;;;2.10;;
74102;SDS011;62853;46.166;3.640;2023-02-28T05:39:33;2.78;;;2.03;;
74102;SDS011;62853;46.166;3.640;2023-02-28T05:42:08;3.80;;;2.22;;
74102;SDS011;62853;46.166;3.640;2023-02-28T05:44:36;3.60;;;2.33;;
74102;SDS011;62853;46.166;3.640;2023-02-28T05:47:07;4.40;;;2.38;;
74102;SDS011;62853;46.166;3.640;2023-02-28T05:49:45;4.32;;;2.53;;
74102;SDS011;62853;46.166;3.640;2023-02-28T05:52:18;3.50;;;2.30;;
74102;SDS011;62853;46.166;3.640;2023-02-28T05:54:56;2.90;;;2.10;;
74102;SDS011;62853;46.166;3.640;2023-02-28T05:57:40;3.50;;;2.45;;
74102;SDS011;62853;46.166;3.640;2023-02-28T06:00:10;2.60;;;2.13;;
74102;SDS011;62853;46.166;3.640;2023-02-28T06:02:55;2.70;;;2.20;;
74102;SDS011;62853;46.166;3.640;2023-02-28T06:05:40;3.75;;;2.30;;
74102;SDS011;62853;46.166;3.640;2023-02-28T06:08:08;3.95;;;2.40;;
74102;SDS011;62853;46.166;3.640;2023-02-28T06:10:43;3.20;;;2.15;;
74102;SDS011;62853;46.166;3.640;2023-02-28T06:16:24;3.40;;;2.33;;
74102;SDS011;62853;46.166;3.640;2023-02-28T06:19:02;4.88;;;2.22;;
74102;SDS011;62853;46.166;3.640;2023-02-28T06:21:51;3.28;;;2.33;;
74102;SDS011;62853;46.166;3.640;2023-02-28T06:24:50;3.95;;;2.08;;
74102;SDS011;62853;46.166;3.640;2023-02-28T06:27:26;3.38;;;2.20;;
74102;SDS011;62853;46.166;3.640;2023-02-28T06:33:09;2.63;;;2.13;;
74102;SDS011;62853;46.166;3.640;2023-02-28T06:38:48;3.03;;;2.20;;
74102;SDS011;62853;46.166;3.640;2023-02-28T06:41:26;3.15;;;2.30;;
74102;SDS011;62853;46.166;3.640;2023-02-28T06:44:05;2.40;;;2.05;;
74102;SDS011;62853;46.166;3.640;2023-02-28T06:46:47;3.60;;;2.03;;
74102;SDS011;62853;46.166;3.640;2023-02-28T06:49:13;3.03;;;2.40;;
74102;SDS011;62853;46.166;3.640;2023-02-28T06:51:44;2.40;;;1.70;;
74102;SDS011;62853;46.166;3.640;2023-02-28T06:54:14;2.22;;;1.60;;
74102;SDS011;62853;46.166;3.640;2023-02-28T06:56:45;2.95;;;1.88;;
74102;SDS011;62853;46.166;3.640;2023-02-28T06:59:24;1.83;;;1.60;;
74102;SDS011;62853;46.166;3.640;2023-02-28T07:02:20;2.40;;;1.73;;
74102;SDS011;62853;46.166;3.640;2023-02-28T07:05:02;4.93;;;2.22;;
74102;SDS011;62853;46.166;3.640;2023-02-28T07:07:46;3.00;;;1.90;;
74102;SDS011;62853;46.166;3.640;2023-02-28T07:10:15;3.45;;;2.05;;
74102;SDS011;62853;46.166;3.640;2023-02-28T07:12:56;3.78;;;2.65;;
74102;SDS011;62853;46.166;3.640;2023-02-28T07:15:44;3.05;;;2.10;;
74102;SDS011;62853;46.166;3.640;2023-02-28T07:18:22;3.15;;;2.08;;
74102;SDS011;62853;46.166;3.640;2023-02-28T07:23:36;4.43;;;2.60;;
74102;SDS011;62853;46.166;3.640;2023-02-28T07:26:14;3.47;;;2.38;;
74102;SDS011;62853;46.166;3.640;2023-02-28T07:28:43;2.97;;;1.75;;
74102;SDS011;62853;46.166;3.640;2023-02-28T07:31:10;3.55;;;2.30;;
74102;SDS011;62853;46.166;3.640;2023-02-28T07:33:42;3.70;;;2.50;;
74102;SDS011;62853;46.166;3.640;2023-02-28T07:36:28;3.63;;;2.80;;
74102;SDS011;62853;46.166;3.640;2023-02-28T07:39:02;6.18;;;3.40;;
74102;SDS011;62853;46.166;3.640;2023-02-28T07:41:36;4.77;;;2.57;;
74102;SDS011;62853;46.166;3.640;2023-02-28T07:44:08;3.60;;;2.55;;
74102;SDS011;62853;46.166;3.640;2023-02-28T07:46:35;3.22;;;2.45;;
74102;SDS011;62853;46.166;3.640;2023-02-28T07:49:04;2.17;;;1.73;;
74102;SDS011;62853;46.166;3.640;2023-02-28T07:51:33;4.45;;;2.40;;
74102;SDS011;62853;46.166;3.640;2023-02-28T07:54:11;4.40;;;2.80;;
74102;SDS011;62853;46.166;3.640;2023-02-28T07:59:19;4.68;;;2.85;;
74102;SDS011;62853;46.166;3.640;2023-02-28T08:01:46;2.58;;;2.13;;
74102;SDS011;62853;46.166;3.640;2023-02-28T08:04:22;3.28;;;2.40;;
74102;SDS011;62853;46.166;3.640;2023-02-28T08:06:48;2.97;;;2.38;;
74102;SDS011;62853;46.166;3.640;2023-02-28T08:15:39;6.30;;;2.40;;
74102;SDS011;62853;46.166;3.640;2023-02-28T08:18:33;3.92;;;2.50;;
74102;SDS011;62853;46.166;3.640;2023-02-28T08:21:24;3.55;;;2.42;;
74102;SDS011;62853;46.166;3.640;2023-02-28T08:24:44;3.30;;;2.25;;
74102;SDS011;62853;46.166;3.640;2023-02-28T08:33:43;2.33;;;1.75;;
74102;SDS011;62853;46.166;3.640;2023-02-28T08:36:32;2.42;;;1.50;;
74102;SDS011;62853;46.166;3.640;2023-02-28T08:39:23;1.92;;;1.73;;
74102;SDS011;62853;46.166;3.640;2023-02-28T08:45:32;2.72;;;1.85;;
74102;SDS011;62853;46.166;3.640;2023-02-28T08:48:14;2.83;;;2.10;;
74102;SDS011;62853;46.166;3.640;2023-02-28T08:51:08;3.45;;;1.85;;
74102;SDS011;62853;46.166;3.640;2023-02-28T09:04:06;3.33;;;2.17;;
74102;SDS011;62853;46.166;3.640;2023-02-28T09:07:14;2.53;;;1.88;;
74102;SDS011;62853;46.166;3.640;2023-02-28T09:14:09;2.80;;;1.70;;
74102;SDS011;62853;46.166;3.640;2023-02-28T09:18:05;2.05;;;1.52;;
74102;SDS011;62853;46.166;3.640;2023-02-28T09:26:59;2.10;;;1.27;;
74102;SDS011;62853;46.166;3.640;2023-02-28T09:30:03;2.22;;;1.67;;
74102;SDS011;62853;46.166;3.640;2023-02-28T09:35:49;2.65;;;1.58;;
74102;SDS011;62853;46.166;3.640;2023-02-28T09:38:50;1.67;;;1.20;;
74102;SDS011;62853;46.166;3.640;2023-02-28T09:48:20;3.35;;;1.30;;
74102;SDS011;62853;46.166;3.640;2023-02-28T09:54:21;1.33;;;1.20;;
74102;SDS011;62853;46.166;3.640;2023-02-28T09:57:40;2.25;;;1.63;;
74102;SDS011;62853;46.166;3.640;2023-02-28T10:10:23;2.15;;;1.48;;
74102;SDS011;62853;46.166;3.640;2023-02-28T10:16:24;2.35;;;1.50;;
74102;SDS011;62853;46.166;3.640;2023-02-28T10:25:40;2.50;;;1.33;;
74102;SDS011;62853;46.166;3.640;2023-02-28T10:31:26;1.60;;;1.38;;
74102;SDS011;62853;46.166;3.640;2023-02-28T10:37:26;2.53;;;1.67;;
74102;SDS011;62853;46.166;3.640;2023-02-28T10:46:25;1.73;;;1.50;;
74102;SDS011;62853;46.166;3.640;2023-02-28T10:52:36;1.70;;;1.33;;
74102;SDS011;62853;46.166;3.640;2023-02-28T11:08:16;1.90;;;1.40;;
74102;SDS011;62853;46.166;3.640;2023-02-28T11:11:25;1.48;;;1.00;;
74102;SDS011;62853;46.166;3.640;2023-02-28T11:13:57;1.50;;;1.20;;
74102;SDS011;62853;46.166;3.640;2023-02-28T11:17:11;2.38;;;1.40;;
74102;SDS011;62853;46.166;3.640;2023-02-28T11:20:32;2.35;;;1.23;;
74102;SDS011;62853;46.166;3.640;2023-02-28T11:22:58;2.00;;;1.42;;
74102;SDS011;62853;46.166;3.640;2023-02-28T11:25:46;2.53;;;1.50;;
74102;SDS011;62853;46.166;3.640;2023-02-28T11:28:44;1.25;;;1.10;;
74102;SDS011;62853;46.166;3.640;2023-02-28T11:31:38;1.73;;;1.35;;
74102;SDS011;62853;46.166;3.640;2023-02-28T11:34:19;2.75;;;1.52;;
74102;SDS011;62853;46.166;3.640;2023-02-28T11:37:30;3.08;;;1.35;;
74102;SDS011;62853;46.166;3.640;2023-02-28T11:46:47;1.65;;;1.48;;
74102;SDS011;62853;46.166;3.640;2023-02-28T12:06:01;2.67;;;1.42;;
74102;SDS011;62853;46.166;3.640;2023-02-28T12:12:20;3.45;;;1.88;;
74102;SDS011;62853;46.166;3.640;2023-02-28T12:18:11;2.22;;;1.70;;
74102;SDS011;62853;46.166;3.640;2023-02-28T12:21:11;2.22;;;1.60;;
74102;SDS011;62853;46.166;3.640;2023-02-28T12:27:25;2.00;;;1.75;;
74102;SDS011;62853;46.166;3.640;2023-02-28T12:32:47;2.60;;;1.70;;
74102;SDS011;62853;46.166;3.640;2023-02-28T12:35:54;2.20;;;1.63;;
74102;SDS011;62853;46.166;3.640;2023-02-28T12:42:05;2.47;;;1.90;;
74102;SDS011;62853;46.166;3.640;2023-02-28T12:50:59;2.17;;;1.70;;
74102;SDS011;62853;46.166;3.640;2023-02-28T13:13:01;1.75;;;1.40;;
74102;SDS011;62853;46.166;3.640;2023-02-28T13:19:57;2.63;;;1.75;;
74102;SDS011;62853;46.166;3.640;2023-02-28T13:28:57;2.22;;;1.60;;
74102;SDS011;62853;46.166;3.640;2023-02-28T13:47:52;2.10;;;1.80;;
74102;SDS011;62853;46.166;3.640;2023-02-28T13:53:54;3.70;;;1.88;;
74102;SDS011;62853;46.166;3.640;2023-02-28T14:16:06;3.25;;;2.30;;
74102;SDS011;62853;46.166;3.640;2023-02-28T14:38:55;3.03;;;2.17;;
74102;SDS011;62853;46.166;3.640;2023-02-28T14:41:55;2.42;;;1.65;;
74102;SDS011;62853;46.166;3.640;2023-02-28T14:48:11;2.80;;;1.90;;
74102;SDS011;62853;46.166;3.640;2023-02-28T15:11:56;3.72;;;2.10;;
74102;SDS011;62853;46.166;3.640;2023-02-28T15:14:57;2.95;;;2.15;;
74102;SDS011;62853;46.166;3.640;2023-02-28T15:20:57;3.25;;;2.20;;
74102;SDS011;62853;46.166;3.640;2023-02-28T15:23:42;2.88;;;2.30;;
74102;SDS011;62853;46.166;3.640;2023-02-28T15:26:50;4.03;;;2.00;;
74102;SDS011;62853;46.166;3.640;2023-02-28T15:33:28;2.40;;;1.80;;
74102;SDS011;62853;46.166;3.640;2023-02-28T15:36:18;2.67;;;2.00;;
74102;SDS011;62853;46.166;3.640;2023-02-28T15:38:53;3.63;;;2.33;;
74102;SDS011;62853;46.166;3.640;2023-02-28T15:51:52;2.40;;;1.90;;
74102;SDS011;62853;46.166;3.640;2023-02-28T15:55:27;2.05;;;1.80;;
74102;SDS011;62853;46.166;3.640;2023-02-28T15:58:23;3.38;;;2.13;;
74102;SDS011;62853;46.166;3.640;2023-02-28T16:01:40;2.92;;;2.10;;
74102;SDS011;62853;46.166;3.640;2023-02-28T16:14:47;2.08;;;1.55;;
74102;SDS011;62853;46.166;3.640;2023-02-28T16:17:46;3.00;;;1.80;;
74102;SDS011;62853;46.166;3.640;2023-02-28T16:20:55;3.00;;;2.03;;
74102;SDS011;62853;46.166;3.640;2023-02-28T16:24:01;2.63;;;2.08;;
74102;SDS011;62853;46.166;3.640;2023-02-28T16:26:43;2.22;;;2.00;;
74102;SDS011;62853;46.166;3.640;2023-02-28T16:29:24;3.33;;;2.35;;
74102;SDS011;62853;46.166;3.640;2023-02-28T16:35:02;9.07;;;4.20;;
74102;SDS011;62853;46.166;3.640;2023-02-28T16:37:28;5.57;;;3.45;;
74102;SDS011;62853;46.166;3.640;2023-02-28T16:40:15;5.70;;;3.30;;
74102;SDS011;62853;46.166;3.640;2023-02-28T16:42:57;7.15;;;4.93;;
74102;SDS011;62853;46.166;3.640;2023-02-28T16:45:51;8.20;;;5.05;;
74102;SDS011;62853;46.166;3.640;2023-02-28T16:48:59;7.05;;;4.20;;
74102;SDS011;62853;46.166;3.640;2023-02-28T16:51:27;6.85;;;4.05;;
74102;SDS011;62853;46.166;3.640;2023-02-28T17:00:11;4.20;;;2.80;;
74102;SDS011;62853;46.166;3.640;2023-02-28T17:03:04;6.13;;;3.95;;
74102;SDS011;62853;46.166;3.640;2023-02-28T17:06:19;5.20;;;3.70;;
74102;SDS011;62853;46.166;3.640;2023-02-28T17:09:03;7.82;;;5.20;;
74102;SDS011;62853;46.166;3.640;2023-02-28T17:11:42;6.90;;;4.60;;
74102;SDS011;62853;46.166;3.640;2023-02-28T17:14:33;11.15;;;6.72;;
74102;SDS011;62853;46.166;3.640;2023-02-28T17:17:04;11.85;;;7.32;;
74102;SDS011;62853;46.166;3.640;2023-02-28T17:19:52;9.13;;;5.22;;
74102;SDS011;62853;46.166;3.640;2023-02-28T17:22:31;7.28;;;3.92;;
74102;SDS011;62853;46.166;3.640;2023-02-28T17:25:06;5.47;;;3.42;;
74102;SDS011;62853;46.166;3.640;2023-02-28T17:27:45;4.75;;;2.75;;
74102;SDS011;62853;46.166;3.640;2023-02-28T17:30:28;3.22;;;2.15;;
74102;SDS011;62853;46.166;3.640;2023-02-28T17:36:36;2.78;;;2.10;;
74102;SDS011;62853;46.166;3.640;2023-02-28T17:42:25;2.03;;;1.42;;
74102;SDS011;62853;46.166;3.640;2023-02-28T17:48:18;1.95;;;1.42;;
74102;SDS011;62853;46.166;3.640;2023-02-28T17:57:36;1.67;;;1.20;;
74102;SDS011;62853;46.166;3.640;2023-02-28T18:00:46;2.05;;;1.50;;
74102;SDS011;62853;46.166;3.640;2023-02-28T18:03:26;1.35;;;1.25;;
74102;SDS011;62853;46.166;3.640;2023-02-28T18:06:19;1.80;;;1.38;;
74102;SDS011;62853;46.166;3.640;2023-02-28T18:20:23;2.40;;;1.80;;
74102;SDS011;62853;46.166;3.640;2023-02-28T18:23:43;2.28;;;1.70;;
74102;SDS011;62853;46.166;3.640;2023-02-28T18:26:43;2.03;;;1.70;;
74102;SDS011;62853;46.166;3.640;2023-02-28T18:33:50;2.08;;;1.80;;
74102;SDS011;62853;46.166;3.640;2023-02-28T18:40:01;2.10;;;1.70;;
74102;SDS011;62853;46.166;3.640;2023-02-28T18:46:20;2.70;;;2.00;;
74102;SDS011;62853;46.166;3.640;2023-02-28T18:52:35;2.22;;;1.88;;
74102;SDS011;62853;46.166;3.640;2023-02-28T18:55:23;3.03;;;2.08;;
74102;SDS011;62853;46.166;3.640;2023-02-28T18:58:07;3.08;;;2.10;;
74102;SDS011;62853;46.166;3.640;2023-02-28T19:04:01;3.10;;;2.35;;
74102;SDS011;62853;46.166;3.640;2023-02-28T19:07:01;3.58;;;2.33;;
74102;SDS011;62853;46.166;3.640;2023-02-28T19:16:47;4.45;;;2.55;;
74102;SDS011;62853;46.166;3.640;2023-02-28T19:19:32;4.90;;;2.70;;
74102;SDS011;62853;46.166;3.640;2023-02-28T19:25:36;3.90;;;2.33;;
74102;SDS011;62853;46.166;3.640;2023-02-28T19:28:44;4.45;;;2.50;;
74102;SDS011;62853;46.166;3.640;2023-02-28T19:38:11;2.67;;;2.00;;
74102;SDS011;62853;46.166;3.640;2023-02-28T19:46:59;4.25;;;2.50;;
74102;SDS011;62853;46.166;3.640;2023-02-28T19:49:59;3.67;;;2.20;;
74102;SDS011;62853;46.166;3.640;2023-02-28T19:55:34;3.88;;;2.28;;
74102;SDS011;62853;46.166;3.640;2023-02-28T20:02:00;3.65;;;2.30;;
74102;SDS011;62853;46.166;3.640;2023-02-28T20:08:38;4.13;;;2.55;;
74102;SDS011;62853;46.166;3.640;2023-02-28T20:18:25;5.85;;;2.53;;
74102;SDS011;62853;46.166;3.640;2023-02-28T20:24:31;3.00;;;2.10;;
74102;SDS011;62853;46.166;3.640;2023-02-28T20:27:56;4.10;;;2.53;;
74102;SDS011;62853;46.166;3.640;2023-02-28T20:34:07;3.20;;;2.40;;
74102;SDS011;62853;46.166;3.640;2023-02-28T20:36:53;3.63;;;2.35;;
74102;SDS011;62853;46.166;3.640;2023-02-28T20:39:56;3.78;;;2.60;;
74102;SDS011;62853;46.166;3.640;2023-02-28T20:42:53;3.47;;;2.53;;
74102;SDS011;62853;46.166;3.640;2023-02-28T20:45:54;5.38;;;2.97;;
74102;SDS011;62853;46.166;3.640;2023-02-28T20:48:49;3.25;;;2.33;;
74102;SDS011;62853;46.166;3.640;2023-02-28T20:51:59;3.20;;;2.30;;
74102;SDS011;62853;46.166;3.640;2023-02-28T20:55:16;4.40;;;2.60;;
74102;SDS011;62853;46.166;3.640;2023-02-28T21:01:19;3.67;;;2.72;;
74102;SDS011;62853;46.166;3.640;2023-02-28T21:34:13;3.95;;;2.60;;
74102;SDS011;62853;46.166;3.640;2023-02-28T21:36:57;5.57;;;2.88;;
74102;SDS011;62853;46.166;3.640;2023-02-28T21:40:12;4.53;;;3.03;;
74102;SDS011;62853;46.166;3.640;2023-02-28T21:47:16;3.28;;;2.53;;
74102;SDS011;62853;46.166;3.640;2023-02-28T21:50:36;3.30;;;2.08;;
74102;SDS011;62853;46.166;3.640;2023-02-28T21:54:00;3.13;;;2.15;;
74102;SDS011;62853;46.166;3.640;2023-02-28T21:57:04;3.47;;;2.30;;
74102;SDS011;62853;46.166;3.640;2023-02-28T22:03:02;4.80;;;2.60;;
74102;SDS011;62853;46.166;3.640;2023-02-28T22:13:28;4.78;;;2.50;;
74102;SDS011;62853;46.166;3.640;2023-02-28T22:19:59;4.45;;;2.67;;
74102;SDS011;62853;46.166;3.640;2023-02-28T22:26:16;3.10;;;2.30;;
74102;SDS011;62853;46.166;3.640;2023-02-28T22:43:12;3.45;;;2.40;;
74102;SDS011;62853;46.166;3.640;2023-02-28T22:57:30;4.85;;;2.85;;
74102;SDS011;62853;46.166;3.640;2023-02-28T23:04:15;4.78;;;2.67;;
74102;SDS011;62853;46.166;3.640;2023-02-28T23:56:47;4.00;;;2.50;;
